sensor_id;sensor_type;location;lat;lon;timestamp;P1;durP1;ratioP1;P2;durP2;ratioP2
64075;SDS011;50327;51.328;12.324;2023-04-20T00:02:24;9.15;;;4.60;;
64075;SDS011;50327;51.328;12.324;2023-04-20T00:04:50;12.05;;;5.57;;
64075;SDS011;50327;51.328;12.324;2023-04-20T00:07:15;10.75;;;5.40;;
64075;SDS011;50327;51.328;12.324;2023-04-20T00:09:41;10.98;;;5.40;;
64075;SDS011;50327;51.328;12.324;2023-04-20T00:12:06;9.70;;;5.93;;
64075;SDS011;50327;51.328;12.324;2023-04-20T00:14:31;8.73;;;5.40;;
64075;SDS011;50327;51.328;12.324;2023-04-20T00:16:56;10.77;;;6.15;;
64075;SDS011;50327;51.328;12.324;2023-04-20T00:19:22;9.80;;;5.43;;
64075;SDS011;50327;51.328;12.324;2023-04-20T00:21:47;9.18;;;4.90;;
64075;SDS011;50327;51.328;12.324;2023-04-20T00:24:13;10.27;;;6.10;;
64075;SDS011;50327;51.328;12.324;2023-04-20T00:26:38;10.00;;;5.47;;
64075;SDS011;50327;51.328;12.324;2023-04-20T00:29:03;10.25;;;5.60;;
64075;SDS011;50327;51.328;12.324;2023-04-20T00:31:29;9.27;;;4.93;;
64075;SDS011;50327;51.328;12.324;2023-04-20T00:33:55;9.75;;;5.28;;
64075;SDS011;50327;51.328;12.324;2023-04-20T00:36:20;13.13;;;6.43;;
64075;SDS011;50327;51.328;12.324;2023-04-20T00:38:45;10.50;;;6.05;;
64075;SDS011;50327;51.328;12.324;2023-04-20T00:41:11;10.65;;;5.88;;
64075;SDS011;50327;51.328;12.324;2023-04-20T00:43:36;8.02;;;5.10;;
64075;SDS011;50327;51.328;12.324;2023-04-20T00:46:01;11.35;;;6.32;;
64075;SDS011;50327;51.328;12.324;2023-04-20T00:48:27;8.75;;;5.20;;
64075;SDS011;50327;51.328;12.324;2023-04-20T00:50:53;10.05;;;5.93;;
64075;SDS011;50327;51.328;12.324;2023-04-20T00:53:18;9.65;;;5.97;;
64075;SDS011;50327;51.328;12.324;2023-04-20T00:55:44;11.52;;;6.07;;
64075;SDS011;50327;51.328;12.324;2023-04-20T00:58:09;11.88;;;6.53;;
64075;SDS011;50327;51.328;12.324;2023-04-20T01:00:35;8.93;;;5.90;;
64075;SDS011;50327;51.328;12.324;2023-04-20T01:03:01;12.32;;;6.63;;
64075;SDS011;50327;51.328;12.324;2023-04-20T01:05:26;8.55;;;5.18;;
64075;SDS011;50327;51.328;12.324;2023-04-20T01:07:52;9.63;;;5.80;;
64075;SDS011;50327;51.328;12.324;2023-04-20T01:10:17;9.68;;;5.70;;
64075;SDS011;50327;51.328;12.324;2023-04-20T01:12:42;9.15;;;5.35;;
64075;SDS011;50327;51.328;12.324;2023-04-20T01:15:08;10.05;;;5.78;;
64075;SDS011;50327;51.328;12.324;2023-04-20T01:17:34;9.25;;;5.57;;
64075;SDS011;50327;51.328;12.324;2023-04-20T01:20:02;10.18;;;5.32;;
64075;SDS011;50327;51.328;12.324;2023-04-20T01:22:27;11.35;;;6.13;;
64075;SDS011;50327;51.328;12.324;2023-04-20T01:24:52;10.18;;;5.60;;
64075;SDS011;50327;51.328;12.324;2023-04-20T01:27:18;11.48;;;5.40;;
64075;SDS011;50327;51.328;12.324;2023-04-20T01:29:43;9.07;;;5.10;;
64075;SDS011;50327;51.328;12.324;2023-04-20T01:32:09;9.65;;;4.82;;
64075;SDS011;50327;51.328;12.324;2023-04-20T01:34:35;10.15;;;5.75;;
64075;SDS011;50327;51.328;12.324;2023-04-20T01:37:00;13.90;;;6.10;;
64075;SDS011;50327;51.328;12.324;2023-04-20T01:39:26;9.18;;;5.50;;
64075;SDS011;50327;51.328;12.324;2023-04-20T01:41:51;10.75;;;5.75;;
64075;SDS011;50327;51.328;12.324;2023-04-20T01:44:16;13.05;;;5.13;;
64075;SDS011;50327;51.328;12.324;2023-04-20T01:46:42;8.57;;;4.85;;
64075;SDS011;50327;51.328;12.324;2023-04-20T01:49:07;7.70;;;4.35;;
64075;SDS011;50327;51.328;12.324;2023-04-20T01:51:33;9.05;;;5.20;;
64075;SDS011;50327;51.328;12.324;2023-04-20T01:53:58;8.63;;;4.75;;
64075;SDS011;50327;51.328;12.324;2023-04-20T01:56:24;8.90;;;4.80;;
64075;SDS011;50327;51.328;12.324;2023-04-20T01:58:49;8.23;;;4.80;;
64075;SDS011;50327;51.328;12.324;2023-04-20T02:01:14;9.80;;;5.97;;
64075;SDS011;50327;51.328;12.324;2023-04-20T02:03:40;9.68;;;5.45;;
64075;SDS011;50327;51.328;12.324;2023-04-20T02:06:05;9.27;;;5.15;;
64075;SDS011;50327;51.328;12.324;2023-04-20T02:08:31;9.10;;;5.03;;
64075;SDS011;50327;51.328;12.324;2023-04-20T02:10:56;10.70;;;4.57;;
64075;SDS011;50327;51.328;12.324;2023-04-20T02:13:22;7.45;;;4.70;;
64075;SDS011;50327;51.328;12.324;2023-04-20T02:15:47;8.30;;;5.30;;
64075;SDS011;50327;51.328;12.324;2023-04-20T02:18:12;8.70;;;4.57;;
64075;SDS011;50327;51.328;12.324;2023-04-20T02:20:40;8.52;;;4.88;;
64075;SDS011;50327;51.328;12.324;2023-04-20T02:23:05;10.80;;;5.90;;
64075;SDS011;50327;51.328;12.324;2023-04-20T02:25:30;9.98;;;5.07;;
64075;SDS011;50327;51.328;12.324;2023-04-20T02:27:55;8.18;;;4.85;;
64075;SDS011;50327;51.328;12.324;2023-04-20T02:30:21;12.15;;;5.70;;
64075;SDS011;50327;51.328;12.324;2023-04-20T02:32:46;9.30;;;4.95;;
64075;SDS011;50327;51.328;12.324;2023-04-20T02:35:11;9.93;;;4.90;;
64075;SDS011;50327;51.328;12.324;2023-04-20T02:37:36;7.50;;;4.75;;
64075;SDS011;50327;51.328;12.324;2023-04-20T02:40:02;10.98;;;5.00;;
64075;SDS011;50327;51.328;12.324;2023-04-20T02:42:28;10.40;;;5.45;;
64075;SDS011;50327;51.328;12.324;2023-04-20T02:44:54;9.05;;;4.93;;
64075;SDS011;50327;51.328;12.324;2023-04-20T02:47:20;10.32;;;5.63;;
64075;SDS011;50327;51.328;12.324;2023-04-20T02:49:45;10.38;;;5.10;;
64075;SDS011;50327;51.328;12.324;2023-04-20T02:52:11;10.32;;;5.72;;
64075;SDS011;50327;51.328;12.324;2023-04-20T02:54:36;9.18;;;5.07;;
64075;SDS011;50327;51.328;12.324;2023-04-20T02:57:01;11.95;;;5.50;;
64075;SDS011;50327;51.328;12.324;2023-04-20T02:59:27;12.05;;;6.05;;
64075;SDS011;50327;51.328;12.324;2023-04-20T03:01:52;9.73;;;6.03;;
64075;SDS011;50327;51.328;12.324;2023-04-20T03:04:18;8.77;;;5.43;;
64075;SDS011;50327;51.328;12.324;2023-04-20T03:06:44;11.48;;;5.25;;
64075;SDS011;50327;51.328;12.324;2023-04-20T03:09:10;11.18;;;6.15;;
64075;SDS011;50327;51.328;12.324;2023-04-20T03:11:35;12.20;;;6.40;;
64075;SDS011;50327;51.328;12.324;2023-04-20T03:14:00;9.13;;;5.63;;
64075;SDS011;50327;51.328;12.324;2023-04-20T03:16:25;9.27;;;5.70;;
64075;SDS011;50327;51.328;12.324;2023-04-20T03:18:51;10.95;;;5.47;;
64075;SDS011;50327;51.328;12.324;2023-04-20T03:21:16;11.07;;;5.72;;
64075;SDS011;50327;51.328;12.324;2023-04-20T03:23:41;9.48;;;5.53;;
64075;SDS011;50327;51.328;12.324;2023-04-20T03:26:06;9.98;;;5.25;;
64075;SDS011;50327;51.328;12.324;2023-04-20T03:28:32;10.27;;;5.80;;
64075;SDS011;50327;51.328;12.324;2023-04-20T03:30:57;12.93;;;5.65;;
64075;SDS011;50327;51.328;12.324;2023-04-20T03:33:23;10.07;;;5.72;;
64075;SDS011;50327;51.328;12.324;2023-04-20T03:35:48;12.70;;;5.90;;
64075;SDS011;50327;51.328;12.324;2023-04-20T03:38:13;11.23;;;5.82;;
64075;SDS011;50327;51.328;12.324;2023-04-20T03:40:39;10.50;;;5.07;;
64075;SDS011;50327;51.328;12.324;2023-04-20T03:43:04;11.90;;;5.20;;
64075;SDS011;50327;51.328;12.324;2023-04-20T03:45:30;8.45;;;5.40;;
64075;SDS011;50327;51.328;12.324;2023-04-20T03:47:55;10.27;;;5.82;;
64075;SDS011;50327;51.328;12.324;2023-04-20T03:50:20;10.98;;;4.60;;
64075;SDS011;50327;51.328;12.324;2023-04-20T03:52:46;8.60;;;4.82;;
64075;SDS011;50327;51.328;12.324;2023-04-20T03:55:11;7.60;;;4.43;;
64075;SDS011;50327;51.328;12.324;2023-04-20T03:57:37;8.18;;;4.45;;
64075;SDS011;50327;51.328;12.324;2023-04-20T04:00:02;7.15;;;3.63;;
64075;SDS011;50327;51.328;12.324;2023-04-20T04:02:29;6.82;;;3.70;;
64075;SDS011;50327;51.328;12.324;2023-04-20T04:04:54;5.57;;;3.40;;
64075;SDS011;50327;51.328;12.324;2023-04-20T04:07:20;5.75;;;2.75;;
64075;SDS011;50327;51.328;12.324;2023-04-20T04:09:45;5.55;;;3.10;;
64075;SDS011;50327;51.328;12.324;2023-04-20T04:12:10;5.88;;;3.03;;
64075;SDS011;50327;51.328;12.324;2023-04-20T04:14:36;4.25;;;2.45;;
64075;SDS011;50327;51.328;12.324;2023-04-20T04:17:01;6.03;;;3.45;;
64075;SDS011;50327;51.328;12.324;2023-04-20T04:19:26;8.25;;;2.80;;
64075;SDS011;50327;51.328;12.324;2023-04-20T04:21:51;4.80;;;2.40;;
64075;SDS011;50327;51.328;12.324;2023-04-20T04:24:16;5.47;;;2.72;;
64075;SDS011;50327;51.328;12.324;2023-04-20T04:26:42;5.57;;;2.67;;
64075;SDS011;50327;51.328;12.324;2023-04-20T04:29:07;9.48;;;3.03;;
64075;SDS011;50327;51.328;12.324;2023-04-20T04:31:34;5.65;;;2.78;;
64075;SDS011;50327;51.328;12.324;2023-04-20T04:33:59;6.40;;;2.50;;
64075;SDS011;50327;51.328;12.324;2023-04-20T04:36:25;4.15;;;2.45;;
64075;SDS011;50327;51.328;12.324;2023-04-20T04:38:50;4.40;;;2.13;;
64075;SDS011;50327;51.328;12.324;2023-04-20T04:41:16;6.68;;;2.92;;
64075;SDS011;50327;51.328;12.324;2023-04-20T04:43:42;4.80;;;2.50;;
64075;SDS011;50327;51.328;12.324;2023-04-20T04:46:08;4.57;;;2.83;;
64075;SDS011;50327;51.328;12.324;2023-04-20T04:48:37;5.20;;;3.03;;
64075;SDS011;50327;51.328;12.324;2023-04-20T04:51:04;4.53;;;2.60;;
64075;SDS011;50327;51.328;12.324;2023-04-20T04:53:30;5.30;;;2.95;;
64075;SDS011;50327;51.328;12.324;2023-04-20T04:55:55;6.47;;;3.25;;
64075;SDS011;50327;51.328;12.324;2023-04-20T04:58:20;6.43;;;3.58;;
64075;SDS011;50327;51.328;12.324;2023-04-20T05:00:45;8.25;;;4.18;;
64075;SDS011;50327;51.328;12.324;2023-04-20T05:03:11;7.85;;;4.15;;
64075;SDS011;50327;51.328;12.324;2023-04-20T05:05:36;7.72;;;4.07;;
64075;SDS011;50327;51.328;12.324;2023-04-20T05:08:02;7.57;;;4.30;;
64075;SDS011;50327;51.328;12.324;2023-04-20T05:10:27;8.98;;;4.25;;
64075;SDS011;50327;51.328;12.324;2023-04-20T05:12:52;10.93;;;4.18;;
64075;SDS011;50327;51.328;12.324;2023-04-20T05:15:18;11.77;;;5.15;;
64075;SDS011;50327;51.328;12.324;2023-04-20T05:17:43;9.73;;;5.13;;
64075;SDS011;50327;51.328;12.324;2023-04-20T05:20:08;10.05;;;5.32;;
64075;SDS011;50327;51.328;12.324;2023-04-20T05:22:35;14.65;;;6.22;;
64075;SDS011;50327;51.328;12.324;2023-04-20T05:25:00;9.85;;;5.53;;
64075;SDS011;50327;51.328;12.324;2023-04-20T05:27:26;11.20;;;5.90;;
64075;SDS011;50327;51.328;12.324;2023-04-20T05:29:51;15.00;;;7.95;;
64075;SDS011;50327;51.328;12.324;2023-04-20T05:32:16;16.63;;;7.70;;
64075;SDS011;50327;51.328;12.324;2023-04-20T05:34:41;12.05;;;6.60;;
64075;SDS011;50327;51.328;12.324;2023-04-20T05:37:07;14.35;;;7.97;;
64075;SDS011;50327;51.328;12.324;2023-04-20T05:39:33;13.40;;;7.75;;
64075;SDS011;50327;51.328;12.324;2023-04-20T05:41:58;14.10;;;8.13;;
64075;SDS011;50327;51.328;12.324;2023-04-20T05:44:23;10.77;;;6.88;;
64075;SDS011;50327;51.328;12.324;2023-04-20T05:46:49;14.85;;;7.80;;
64075;SDS011;50327;51.328;12.324;2023-04-20T05:49:14;11.18;;;7.05;;
64075;SDS011;50327;51.328;12.324;2023-04-20T05:51:39;12.95;;;7.45;;
64075;SDS011;50327;51.328;12.324;2023-04-20T05:54:05;15.20;;;7.97;;
64075;SDS011;50327;51.328;12.324;2023-04-20T05:56:30;12.05;;;7.55;;
64075;SDS011;50327;51.328;12.324;2023-04-20T05:58:55;15.43;;;8.52;;
64075;SDS011;50327;51.328;12.324;2023-04-20T06:01:21;15.70;;;8.95;;
64075;SDS011;50327;51.328;12.324;2023-04-20T06:03:46;11.75;;;7.28;;
64075;SDS011;50327;51.328;12.324;2023-04-20T06:06:13;11.43;;;8.18;;
64075;SDS011;50327;51.328;12.324;2023-04-20T06:08:38;12.80;;;7.75;;
64075;SDS011;50327;51.328;12.324;2023-04-20T06:11:03;12.38;;;7.15;;
64075;SDS011;50327;51.328;12.324;2023-04-20T06:13:29;11.23;;;6.97;;
64075;SDS011;50327;51.328;12.324;2023-04-20T06:15:54;14.98;;;7.38;;
64075;SDS011;50327;51.328;12.324;2023-04-20T06:18:19;13.98;;;8.07;;
64075;SDS011;50327;51.328;12.324;2023-04-20T06:20:45;14.27;;;8.02;;
64075;SDS011;50327;51.328;12.324;2023-04-20T06:23:10;14.30;;;8.50;;
64075;SDS011;50327;51.328;12.324;2023-04-20T06:25:36;14.10;;;7.78;;
64075;SDS011;50327;51.328;12.324;2023-04-20T06:28:02;13.93;;;9.05;;
64075;SDS011;50327;51.328;12.324;2023-04-20T06:30:27;14.68;;;8.80;;
64075;SDS011;50327;51.328;12.324;2023-04-20T06:32:52;12.73;;;7.13;;
64075;SDS011;50327;51.328;12.324;2023-04-20T06:35:17;12.55;;;7.72;;
64075;SDS011;50327;51.328;12.324;2023-04-20T06:37:43;11.68;;;7.10;;
64075;SDS011;50327;51.328;12.324;2023-04-20T06:40:08;17.15;;;8.15;;
64075;SDS011;50327;51.328;12.324;2023-04-20T06:42:33;14.43;;;8.82;;
64075;SDS011;50327;51.328;12.324;2023-04-20T06:44:58;13.40;;;8.80;;
64075;SDS011;50327;51.328;12.324;2023-04-20T06:47:24;12.85;;;7.88;;
64075;SDS011;50327;51.328;12.324;2023-04-20T06:49:55;14.75;;;8.43;;
64075;SDS011;50327;51.328;12.324;2023-04-20T06:52:20;17.15;;;9.00;;
64075;SDS011;50327;51.328;12.324;2023-04-20T06:54:46;11.38;;;7.63;;
64075;SDS011;50327;51.328;12.324;2023-04-20T06:57:11;12.43;;;7.90;;
64075;SDS011;50327;51.328;12.324;2023-04-20T06:59:36;12.00;;;8.02;;
64075;SDS011;50327;51.328;12.324;2023-04-20T07:02:02;12.63;;;7.45;;
64075;SDS011;50327;51.328;12.324;2023-04-20T07:04:27;10.27;;;6.97;;
64075;SDS011;50327;51.328;12.324;2023-04-20T07:06:52;12.02;;;7.60;;
64075;SDS011;50327;51.328;12.324;2023-04-20T07:09:17;12.45;;;7.38;;
64075;SDS011;50327;51.328;12.324;2023-04-20T07:11:43;15.10;;;7.22;;
64075;SDS011;50327;51.328;12.324;2023-04-20T07:14:08;12.15;;;7.90;;
64075;SDS011;50327;51.328;12.324;2023-04-20T07:16:33;10.40;;;6.72;;
64075;SDS011;50327;51.328;12.324;2023-04-20T07:18:58;12.30;;;7.95;;
64075;SDS011;50327;51.328;12.324;2023-04-20T07:21:24;12.48;;;7.78;;
64075;SDS011;50327;51.328;12.324;2023-04-20T07:23:49;17.50;;;8.20;;
64075;SDS011;50327;51.328;12.324;2023-04-20T07:26:14;17.30;;;7.18;;
64075;SDS011;50327;51.328;12.324;2023-04-20T07:28:40;13.45;;;7.95;;
64075;SDS011;50327;51.328;12.324;2023-04-20T07:31:05;12.15;;;7.40;;
64075;SDS011;50327;51.328;12.324;2023-04-20T07:33:31;14.73;;;8.18;;
64075;SDS011;50327;51.328;12.324;2023-04-20T07:35:56;12.88;;;7.50;;
64075;SDS011;50327;51.328;12.324;2023-04-20T07:38:21;12.10;;;7.85;;
64075;SDS011;50327;51.328;12.324;2023-04-20T07:40:47;12.00;;;7.72;;
64075;SDS011;50327;51.328;12.324;2023-04-20T07:43:12;16.00;;;7.75;;
64075;SDS011;50327;51.328;12.324;2023-04-20T07:45:40;11.65;;;6.75;;
64075;SDS011;50327;51.328;12.324;2023-04-20T07:48:05;11.30;;;7.30;;
64075;SDS011;50327;51.328;12.324;2023-04-20T07:50:33;15.43;;;8.05;;
64075;SDS011;50327;51.328;12.324;2023-04-20T07:52:58;12.63;;;7.50;;
64075;SDS011;50327;51.328;12.324;2023-04-20T07:55:23;12.55;;;7.35;;
64075;SDS011;50327;51.328;12.324;2023-04-20T07:57:48;13.65;;;7.63;;
64075;SDS011;50327;51.328;12.324;2023-04-20T08:00:14;11.57;;;7.82;;
64075;SDS011;50327;51.328;12.324;2023-04-20T08:02:40;15.07;;;8.20;;
64075;SDS011;50327;51.328;12.324;2023-04-20T08:05:05;11.70;;;7.30;;
64075;SDS011;50327;51.328;12.324;2023-04-20T08:07:30;15.30;;;8.18;;
64075;SDS011;50327;51.328;12.324;2023-04-20T08:09:56;13.00;;;8.73;;
64075;SDS011;50327;51.328;12.324;2023-04-20T08:12:21;18.42;;;8.20;;
64075;SDS011;50327;51.328;12.324;2023-04-20T08:14:47;15.35;;;8.30;;
64075;SDS011;50327;51.328;12.324;2023-04-20T08:17:12;14.80;;;7.88;;
64075;SDS011;50327;51.328;12.324;2023-04-20T08:19:37;12.43;;;7.03;;
64075;SDS011;50327;51.328;12.324;2023-04-20T08:22:03;11.93;;;7.40;;
64075;SDS011;50327;51.328;12.324;2023-04-20T08:24:29;11.50;;;7.18;;
64075;SDS011;50327;51.328;12.324;2023-04-20T08:26:54;11.82;;;7.07;;
64075;SDS011;50327;51.328;12.324;2023-04-20T08:29:19;11.82;;;6.57;;
64075;SDS011;50327;51.328;12.324;2023-04-20T08:31:45;14.00;;;8.00;;
64075;SDS011;50327;51.328;12.324;2023-04-20T08:34:10;14.65;;;7.60;;
64075;SDS011;50327;51.328;12.324;2023-04-20T08:36:36;11.10;;;6.30;;
64075;SDS011;50327;51.328;12.324;2023-04-20T08:39:11;11.43;;;6.57;;
64075;SDS011;50327;51.328;12.324;2023-04-20T08:41:37;11.65;;;6.47;;
64075;SDS011;50327;51.328;12.324;2023-04-20T08:44:02;10.35;;;6.75;;
64075;SDS011;50327;51.328;12.324;2023-04-20T08:46:28;11.18;;;6.53;;
64075;SDS011;50327;51.328;12.324;2023-04-20T08:48:53;10.18;;;6.35;;
64075;SDS011;50327;51.328;12.324;2023-04-20T08:51:22;8.93;;;6.07;;
64075;SDS011;50327;51.328;12.324;2023-04-20T08:53:48;10.77;;;5.75;;
64075;SDS011;50327;51.328;12.324;2023-04-20T08:56:13;11.02;;;6.35;;
64075;SDS011;50327;51.328;12.324;2023-04-20T08:58:38;14.30;;;6.88;;
64075;SDS011;50327;51.328;12.324;2023-04-20T09:01:07;12.97;;;7.53;;
64075;SDS011;50327;51.328;12.324;2023-04-20T09:05:58;13.07;;;7.53;;
64075;SDS011;50327;51.328;12.324;2023-04-20T09:08:37;11.00;;;6.85;;
64075;SDS011;50327;51.328;12.324;2023-04-20T09:13:28;15.02;;;7.60;;
64075;SDS011;50327;51.328;12.324;2023-04-20T09:15:53;11.38;;;7.60;;
64075;SDS011;50327;51.328;12.324;2023-04-20T09:18:18;14.75;;;8.18;;
64075;SDS011;50327;51.328;12.324;2023-04-20T09:20:43;12.90;;;7.95;;
64075;SDS011;50327;51.328;12.324;2023-04-20T09:23:13;13.43;;;8.73;;
64075;SDS011;50327;51.328;12.324;2023-04-20T09:25:39;12.57;;;8.48;;
64075;SDS011;50327;51.328;12.324;2023-04-20T09:28:06;15.35;;;8.98;;
64075;SDS011;50327;51.328;12.324;2023-04-20T09:30:36;13.00;;;8.25;;
64075;SDS011;50327;51.328;12.324;2023-04-20T09:35:27;14.75;;;7.75;;
64075;SDS011;50327;51.328;12.324;2023-04-20T09:37:52;15.57;;;8.52;;
64075;SDS011;50327;51.328;12.324;2023-04-20T09:40:18;13.20;;;7.38;;
64075;SDS011;50327;51.328;12.324;2023-04-20T09:42:43;13.65;;;7.15;;
64075;SDS011;50327;51.328;12.324;2023-04-20T09:45:11;12.25;;;7.65;;
64075;SDS011;50327;51.328;12.324;2023-04-20T09:47:37;14.15;;;8.00;;
64075;SDS011;50327;51.328;12.324;2023-04-20T09:50:05;13.15;;;7.50;;
64075;SDS011;50327;51.328;12.324;2023-04-20T09:52:31;12.85;;;7.53;;
64075;SDS011;50327;51.328;12.324;2023-04-20T09:54:57;13.40;;;7.18;;
64075;SDS011;50327;51.328;12.324;2023-04-20T09:57:22;12.38;;;7.25;;
64075;SDS011;50327;51.328;12.324;2023-04-20T09:59:49;13.57;;;6.75;;
64075;SDS011;50327;51.328;12.324;2023-04-20T10:02:15;11.65;;;7.03;;
64075;SDS011;50327;51.328;12.324;2023-04-20T10:04:56;12.50;;;6.60;;
64075;SDS011;50327;51.328;12.324;2023-04-20T10:07:25;10.15;;;6.80;;
64075;SDS011;50327;51.328;12.324;2023-04-20T10:10:07;12.73;;;6.50;;
64075;SDS011;50327;51.328;12.324;2023-04-20T10:12:33;10.13;;;6.10;;
64075;SDS011;50327;51.328;12.324;2023-04-20T10:15:01;10.50;;;6.30;;
64075;SDS011;50327;51.328;12.324;2023-04-20T10:17:29;10.77;;;6.65;;
64075;SDS011;50327;51.328;12.324;2023-04-20T10:22:30;12.90;;;6.20;;
64075;SDS011;50327;51.328;12.324;2023-04-20T10:25:01;15.93;;;5.80;;
64075;SDS011;50327;51.328;12.324;2023-04-20T10:27:38;9.63;;;5.55;;
64075;SDS011;50327;51.328;12.324;2023-04-20T10:30:09;8.88;;;4.93;;
64075;SDS011;50327;51.328;12.324;2023-04-20T10:32:35;10.57;;;5.22;;
64075;SDS011;50327;51.328;12.324;2023-04-20T10:35:04;9.68;;;5.30;;
64075;SDS011;50327;51.328;12.324;2023-04-20T10:37:30;14.90;;;5.15;;
64075;SDS011;50327;51.328;12.324;2023-04-20T10:39:56;8.70;;;4.80;;
64075;SDS011;50327;51.328;12.324;2023-04-20T10:42:21;10.20;;;5.05;;
64075;SDS011;50327;51.328;12.324;2023-04-20T10:44:50;8.90;;;5.07;;
64075;SDS011;50327;51.328;12.324;2023-04-20T10:47:16;11.68;;;5.60;;
64075;SDS011;50327;51.328;12.324;2023-04-20T10:49:42;9.68;;;5.40;;
64075;SDS011;50327;51.328;12.324;2023-04-20T10:52:07;14.35;;;5.75;;
64075;SDS011;50327;51.328;12.324;2023-04-20T10:54:36;16.33;;;6.03;;
64075;SDS011;50327;51.328;12.324;2023-04-20T10:57:03;16.02;;;6.15;;
64075;SDS011;50327;51.328;12.324;2023-04-20T10:59:29;12.40;;;5.28;;
64075;SDS011;50327;51.328;12.324;2023-04-20T11:01:54;10.95;;;5.80;;
64075;SDS011;50327;51.328;12.324;2023-04-20T11:04:28;14.25;;;6.47;;
64075;SDS011;50327;51.328;12.324;2023-04-20T11:06:53;15.93;;;6.10;;
64075;SDS011;50327;51.328;12.324;2023-04-20T11:09:20;11.55;;;6.20;;
64075;SDS011;50327;51.328;12.324;2023-04-20T11:11:56;9.93;;;6.07;;
64075;SDS011;50327;51.328;12.324;2023-04-20T11:14:22;13.65;;;5.82;;
64075;SDS011;50327;51.328;12.324;2023-04-20T11:16:50;11.50;;;6.35;;
64075;SDS011;50327;51.328;12.324;2023-04-20T11:19:21;11.57;;;6.88;;
64075;SDS011;50327;51.328;12.324;2023-04-20T11:21:46;10.15;;;6.85;;
64075;SDS011;50327;51.328;12.324;2023-04-20T11:24:18;13.35;;;7.00;;
64075;SDS011;50327;51.328;12.324;2023-04-20T11:26:47;13.10;;;7.32;;
64075;SDS011;50327;51.328;12.324;2023-04-20T11:31:56;10.75;;;6.28;;
64075;SDS011;50327;51.328;12.324;2023-04-20T11:34:22;11.88;;;6.90;;
64075;SDS011;50327;51.328;12.324;2023-04-20T11:36:48;13.13;;;7.05;;
64075;SDS011;50327;51.328;12.324;2023-04-20T11:39:21;10.85;;;6.68;;
64075;SDS011;50327;51.328;12.324;2023-04-20T11:41:46;12.55;;;7.68;;
64075;SDS011;50327;51.328;12.324;2023-04-20T11:44:11;14.93;;;7.65;;
64075;SDS011;50327;51.328;12.324;2023-04-20T11:46:39;14.02;;;7.00;;
64075;SDS011;50327;51.328;12.324;2023-04-20T11:49:04;15.85;;;7.15;;
64075;SDS011;50327;51.328;12.324;2023-04-20T11:51:29;12.02;;;7.22;;
64075;SDS011;50327;51.328;12.324;2023-04-20T11:53:56;13.65;;;7.80;;
64075;SDS011;50327;51.328;12.324;2023-04-20T11:56:21;13.13;;;9.00;;
64075;SDS011;50327;51.328;12.324;2023-04-20T11:58:46;15.15;;;8.30;;
64075;SDS011;50327;51.328;12.324;2023-04-20T12:01:11;15.45;;;7.85;;
64075;SDS011;50327;51.328;12.324;2023-04-20T12:03:37;15.25;;;7.53;;
64075;SDS011;50327;51.328;12.324;2023-04-20T12:06:02;13.18;;;7.85;;
64075;SDS011;50327;51.328;12.324;2023-04-20T12:08:27;16.63;;;7.75;;
64075;SDS011;50327;51.328;12.324;2023-04-20T12:10:53;12.15;;;8.15;;
64075;SDS011;50327;51.328;12.324;2023-04-20T12:13:18;11.93;;;7.18;;
64075;SDS011;50327;51.328;12.324;2023-04-20T12:15:43;13.63;;;7.50;;
64075;SDS011;50327;51.328;12.324;2023-04-20T12:18:08;13.10;;;7.65;;
64075;SDS011;50327;51.328;12.324;2023-04-20T12:20:34;18.13;;;7.75;;
64075;SDS011;50327;51.328;12.324;2023-04-20T12:23:00;15.70;;;7.70;;
64075;SDS011;50327;51.328;12.324;2023-04-20T12:25:26;14.70;;;8.50;;
64075;SDS011;50327;51.328;12.324;2023-04-20T12:27:51;18.95;;;8.07;;
64075;SDS011;50327;51.328;12.324;2023-04-20T12:30:16;14.25;;;8.02;;
64075;SDS011;50327;51.328;12.324;2023-04-20T12:32:44;15.02;;;9.57;;
64075;SDS011;50327;51.328;12.324;2023-04-20T12:35:09;17.27;;;9.55;;
64075;SDS011;50327;51.328;12.324;2023-04-20T12:37:34;15.85;;;8.88;;
64075;SDS011;50327;51.328;12.324;2023-04-20T12:40:00;26.98;;;9.52;;
64075;SDS011;50327;51.328;12.324;2023-04-20T12:42:25;17.20;;;10.63;;
64075;SDS011;50327;51.328;12.324;2023-04-20T12:44:53;21.50;;;10.30;;
64075;SDS011;50327;51.328;12.324;2023-04-20T12:47:20;15.82;;;9.50;;
64075;SDS011;50327;51.328;12.324;2023-04-20T12:49:46;18.05;;;10.23;;
64075;SDS011;50327;51.328;12.324;2023-04-20T12:52:11;20.38;;;11.00;;
64075;SDS011;50327;51.328;12.324;2023-04-20T12:54:36;17.95;;;10.85;;
64075;SDS011;50327;51.328;12.324;2023-04-20T12:57:02;19.88;;;10.90;;
64075;SDS011;50327;51.328;12.324;2023-04-20T12:59:27;19.65;;;11.38;;
64075;SDS011;50327;51.328;12.324;2023-04-20T13:01:53;19.70;;;10.90;;
64075;SDS011;50327;51.328;12.324;2023-04-20T13:04:18;17.98;;;10.50;;
64075;SDS011;50327;51.328;12.324;2023-04-20T13:06:43;20.50;;;11.95;;
64075;SDS011;50327;51.328;12.324;2023-04-20T13:09:09;17.13;;;10.73;;
64075;SDS011;50327;51.328;12.324;2023-04-20T13:11:34;21.10;;;11.38;;
64075;SDS011;50327;51.328;12.324;2023-04-20T13:13:59;18.42;;;11.55;;
64075;SDS011;50327;51.328;12.324;2023-04-20T13:16:24;21.65;;;12.10;;
64075;SDS011;50327;51.328;12.324;2023-04-20T13:18:50;22.95;;;12.02;;
64075;SDS011;50327;51.328;12.324;2023-04-20T13:21:15;20.58;;;11.50;;
64075;SDS011;50327;51.328;12.324;2023-04-20T13:23:40;19.90;;;12.45;;
64075;SDS011;50327;51.328;12.324;2023-04-20T13:26:06;22.02;;;11.40;;
64075;SDS011;50327;51.328;12.324;2023-04-20T13:28:31;20.60;;;12.00;;
64075;SDS011;50327;51.328;12.324;2023-04-20T13:30:59;20.85;;;11.98;;
64075;SDS011;50327;51.328;12.324;2023-04-20T13:33:25;22.20;;;11.90;;
64075;SDS011;50327;51.328;12.324;2023-04-20T13:35:50;19.70;;;11.95;;
64075;SDS011;50327;51.328;12.324;2023-04-20T13:38:16;21.70;;;12.02;;
64075;SDS011;50327;51.328;12.324;2023-04-20T13:40:41;21.83;;;11.60;;
64075;SDS011;50327;51.328;12.324;2023-04-20T13:43:08;18.70;;;11.50;;
64075;SDS011;50327;51.328;12.324;2023-04-20T13:45:33;19.42;;;11.00;;
64075;SDS011;50327;51.328;12.324;2023-04-20T13:47:58;24.95;;;12.70;;
64075;SDS011;50327;51.328;12.324;2023-04-20T13:50:24;18.23;;;11.23;;
64075;SDS011;50327;51.328;12.324;2023-04-20T13:52:49;18.17;;;10.57;;
64075;SDS011;50327;51.328;12.324;2023-04-20T13:55:14;18.77;;;11.93;;
64075;SDS011;50327;51.328;12.324;2023-04-20T13:57:40;19.35;;;11.27;;
64075;SDS011;50327;51.328;12.324;2023-04-20T14:00:06;19.92;;;11.43;;
64075;SDS011;50327;51.328;12.324;2023-04-20T14:02:32;18.77;;;11.43;;
64075;SDS011;50327;51.328;12.324;2023-04-20T14:04:57;23.25;;;12.93;;
64075;SDS011;50327;51.328;12.324;2023-04-20T14:07:22;22.08;;;11.45;;
64075;SDS011;50327;51.328;12.324;2023-04-20T14:09:48;21.92;;;11.32;;
64075;SDS011;50327;51.328;12.324;2023-04-20T14:12:13;23.42;;;12.18;;
64075;SDS011;50327;51.328;12.324;2023-04-20T14:14:39;25.42;;;12.82;;
64075;SDS011;50327;51.328;12.324;2023-04-20T14:17:04;22.23;;;12.02;;
64075;SDS011;50327;51.328;12.324;2023-04-20T14:19:30;25.92;;;13.65;;
64075;SDS011;50327;51.328;12.324;2023-04-20T14:21:56;23.50;;;13.32;;
64075;SDS011;50327;51.328;12.324;2023-04-20T14:24:21;24.77;;;12.40;;
64075;SDS011;50327;51.328;12.324;2023-04-20T14:26:49;28.15;;;14.38;;
64075;SDS011;50327;51.328;12.324;2023-04-20T14:29:14;26.58;;;12.70;;